createdAt,value
2023-01-03T00:01:42.965Z,100.00
2023-01-03T00:04:16.055Z,100.00
2023-01-03T00:06:50.002Z,100.00
2023-01-03T00:09:26.884Z,100.00
2023-01-03T00:12:03.763Z,100.00
2023-01-03T00:14:39.302Z,100.00
2023-01-03T00:17:15.496Z,100.00
2023-01-03T00:19:48.404Z,100.00
2023-01-03T00:22:21.527Z,100.00
2023-01-03T00:24:54.323Z,100.00
2023-01-03T00:27:27.753Z,100.00
2023-01-03T00:30:01.275Z,100.00
2023-01-03T00:32:34.230Z,100.00
2023-01-03T00:35:07.882Z,100.00
2023-01-03T00:37:47.037Z,100.00
2023-01-03T00:40:23.317Z,100.00
2023-01-03T00:42:56.291Z,100.00
2023-01-03T00:45:33.632Z,100.00
2023-01-03T00:48:11.695Z,100.00
2023-01-03T00:50:47.455Z,100.00
2023-01-03T00:53:22.946Z,100.00
2023-01-03T00:55:55.668Z,100.00
2023-01-03T00:58:30.646Z,100.00
2023-01-03T01:01:09.741Z,100.00
2023-01-03T01:03:46.743Z,100.00
2023-01-03T01:06:19.621Z,100.00
2023-01-03T01:08:53.888Z,100.00
2023-01-03T01:11:27.317Z,100.00
2023-01-03T01:14:06.475Z,100.00
2023-01-03T01:16:39.279Z,100.00
2023-01-03T01:19:12.485Z,100.00
2023-01-03T01:21:48.982Z,100.00
2023-01-03T01:24:23.583Z,100.00
2023-01-03T01:27:00.382Z,100.00
2023-01-03T01:29:34.364Z,100.00
2023-01-03T01:32:10.015Z,100.00
2023-01-03T01:34:43.062Z,100.00
2023-01-03T01:37:19.267Z,100.00
2023-01-03T01:39:55.594Z,100.00
2023-01-03T01:42:31.318Z,100.00
2023-01-03T01:45:05.809Z,100.00
2023-01-03T01:47:48.402Z,100.00
2023-01-03T01:50:39.835Z,100.00
2023-01-03T01:53:16.035Z,100.00
2023-01-03T01:55:52.453Z,100.00
2023-01-03T01:58:35.529Z,100.00
2023-01-03T02:01:11.335Z,100.00
2023-01-03T02:03:46.228Z,100.00
2023-01-03T02:06:23.612Z,100.00
2023-01-03T02:08:56.715Z,100.00
2023-01-03T02:11:48.247Z,100.00
2023-01-03T02:14:43.465Z,100.00
2023-01-03T02:17:19.813Z,100.00
2023-01-03T02:19:55.400Z,100.00
2023-01-03T02:22:36.891Z,100.00
2023-01-03T02:25:21.359Z,100.00
2023-01-03T02:28:09.432Z,100.00
2023-01-03T02:30:48.641Z,100.00
2023-01-03T02:33:31.470Z,100.00
2023-01-03T02:36:11.291Z,100.00
2023-01-03T02:38:49.871Z,100.00
2023-01-03T02:41:33.178Z,100.00
2023-01-03T02:44:23.986Z,100.00
2023-01-03T02:47:11.481Z,100.00
2023-01-03T02:49:48.864Z,100.00
2023-01-03T02:52:24.516Z,100.00
2023-01-03T02:55:02.391Z,100.00
2023-01-03T02:57:38.217Z,100.00
2023-01-03T03:00:14.095Z,100.00
2023-01-03T03:02:52.103Z,100.00
2023-01-03T03:05:32.877Z,100.00
2023-01-03T03:08:09.011Z,100.00
2023-01-03T03:10:45.589Z,100.00
2023-01-03T03:13:35.140Z,100.00
2023-01-03T03:16:21.436Z,100.00
2023-01-03T03:19:03.268Z,100.00
2023-01-03T03:21:42.229Z,100.00
2023-01-03T03:24:20.467Z,100.00
2023-01-03T03:26:54.411Z,100.00
2023-01-03T03:29:30.505Z,100.00
2023-01-03T03:32:06.409Z,100.00
2023-01-03T03:34:40.513Z,100.00
2023-01-03T03:37:19.751Z,100.00
2023-01-03T03:39:53.689Z,100.00
2023-01-03T03:42:45.367Z,100.00
2023-01-03T03:45:24.835Z,100.00
2023-01-03T03:47:58.152Z,100.00
2023-01-03T03:50:45.393Z,100.00
2023-01-03T03:53:23.944Z,100.00
2023-01-03T03:56:03.681Z,100.00
2023-01-03T03:58:40.126Z,100.00
2023-01-03T04:01:17.935Z,100.00
2023-01-03T04:03:57.573Z,100.00
2023-01-03T04:06:53.643Z,100.00
2023-01-03T04:09:26.803Z,100.00
2023-01-03T04:11:59.673Z,100.00
2023-01-03T04:14:37.536Z,100.00
2023-01-03T04:17:10.401Z,100.00
2023-01-03T04:19:46.656Z,100.00
2023-01-03T04:22:20.019Z,100.00
2023-01-03T04:24:52.845Z,100.00
2023-01-03T04:27:26.055Z,100.00
2023-01-03T04:30:01.928Z,100.00
2023-01-03T04:32:34.797Z,100.00
2023-01-03T04:35:08.408Z,100.00
2023-01-03T04:37:46.668Z,100.00
2023-01-03T04:40:24.648Z,100.00
2023-01-03T04:42:57.668Z,100.00
2023-01-03T04:45:34.483Z,100.00
2023-01-03T04:48:13.257Z,100.00
2023-01-03T04:50:53.616Z,100.00
2023-01-03T04:53:31.932Z,100.00
2023-01-03T04:56:23.773Z,100.00
2023-01-03T04:59:03.073Z,100.00
2023-01-03T05:01:39.052Z,100.00
2023-01-03T05:04:12.193Z,100.00
2023-01-03T05:06:45.830Z,100.00
2023-01-03T05:09:23.070Z,100.00
2023-01-03T05:12:01.793Z,100.00
2023-01-03T05:14:34.993Z,100.00
2023-01-03T05:17:11.268Z,85.76
2023-01-03T05:19:49.192Z,80.12
2023-01-03T05:22:22.271Z,80.74
2023-01-03T05:24:57.853Z,75.91
2023-01-03T05:27:31.145Z,73.01
2023-01-03T05:30:04.527Z,74.93
2023-01-03T05:32:40.586Z,76.63
2023-01-03T05:35:13.996Z,80.18
2023-01-03T05:37:52.812Z,89.13
2023-01-03T05:40:28.863Z,94.68
2023-01-03T05:43:02.203Z,98.11
2023-01-03T05:45:35.875Z,100.00
2023-01-03T05:48:09.703Z,100.00
2023-01-03T05:50:48.915Z,100.00
2023-01-03T05:53:23.109Z,100.00
2023-01-03T05:55:55.840Z,100.00
2023-01-03T05:58:28.692Z,100.00
2023-01-03T06:01:07.874Z,100.00
2023-01-03T06:03:44.715Z,100.00
2023-01-03T06:06:19.324Z,100.00
2023-01-03T06:08:54.173Z,100.00
2023-01-03T06:11:29.462Z,100.00
2023-01-03T06:14:15.895Z,100.00
2023-01-03T06:16:49.025Z,100.00
2023-01-03T06:19:22.381Z,100.00
2023-01-03T06:21:55.700Z,100.00
2023-01-03T06:24:28.832Z,100.00
2023-01-03T06:27:01.804Z,100.00
2023-01-03T06:29:34.748Z,100.00
2023-01-03T06:32:09.786Z,100.00
2023-01-03T06:34:43.060Z,100.00
2023-01-03T06:37:15.831Z,100.00
2023-01-03T06:39:48.564Z,100.00
2023-01-03T06:42:21.371Z,100.00
2023-01-03T06:44:57.885Z,100.00
2023-01-03T06:47:30.628Z,100.00
2023-01-03T06:50:06.956Z,100.00
2023-01-03T06:52:42.688Z,100.00
2023-01-03T06:55:15.818Z,100.00
2023-01-03T06:57:48.537Z,100.00
2023-01-03T07:00:21.548Z,100.00
2023-01-03T07:02:54.551Z,100.00
2023-01-03T07:05:27.537Z,100.00
2023-01-03T07:08:03.014Z,100.00
2023-01-03T07:10:35.944Z,100.00
2023-01-03T07:13:11.283Z,100.00
2023-01-03T07:15:45.697Z,100.00
2023-01-03T07:18:22.014Z,100.00
2023-01-03T07:20:54.988Z,100.00
2023-01-03T07:23:27.811Z,100.00
2023-01-03T07:26:00.629Z,100.00
2023-01-03T07:28:33.500Z,100.00
2023-01-03T07:31:07.852Z,100.00
2023-01-03T07:33:41.563Z,100.00
2023-01-03T07:36:16.042Z,100.00
2023-01-03T07:38:49.215Z,100.00
2023-01-03T07:41:22.879Z,100.00
2023-01-03T07:44:01.064Z,100.00
2023-01-03T07:46:34.276Z,100.00
2023-01-03T07:49:11.417Z,100.00
2023-01-03T07:51:45.327Z,100.00
2023-01-03T07:54:21.309Z,100.00
2023-01-03T07:56:54.103Z,100.00
2023-01-03T07:59:27.220Z,100.00
2023-01-03T08:02:00.107Z,99.88
2023-01-03T08:04:33.188Z,100.00
2023-01-03T08:07:05.953Z,96.68
2023-01-03T08:09:39.018Z,93.89
2023-01-03T08:12:12.918Z,92.99
2023-01-03T08:14:45.824Z,96.22
2023-01-03T08:17:18.893Z,92.80
2023-01-03T08:19:51.766Z,91.89
2023-01-03T08:22:24.777Z,93.72
2023-01-03T08:24:57.654Z,88.88
2023-01-03T08:27:30.738Z,82.77
2023-01-03T08:30:07.768Z,81.00
2023-01-03T08:32:44.185Z,81.66
2023-01-03T08:35:18.273Z,81.51
2023-01-03T08:37:54.437Z,81.10
2023-01-03T08:40:36.713Z,81.48
2023-01-03T08:43:14.456Z,81.99
2023-01-03T08:45:50.185Z,80.92
2023-01-03T08:48:23.303Z,81.30
2023-01-03T08:50:56.305Z,80.34
2023-01-03T08:53:29.441Z,80.05
2023-01-03T08:56:02.273Z,78.37
2023-01-03T08:58:35.569Z,78.98
2023-01-03T09:01:09.320Z,82.11
2023-01-03T09:03:42.605Z,85.57
2023-01-03T09:06:16.048Z,81.02
2023-01-03T09:08:48.963Z,79.38
2023-01-03T09:11:21.905Z,80.17
2023-01-03T09:13:55.535Z,85.42
2023-01-03T09:16:28.617Z,86.05
2023-01-03T09:19:01.710Z,85.23
2023-01-03T09:21:34.708Z,85.44
2023-01-03T09:24:07.913Z,90.46
2023-01-03T09:26:40.867Z,86.39
2023-01-03T09:29:13.797Z,87.84
2023-01-03T09:31:47.078Z,89.15
2023-01-03T09:34:20.056Z,98.39
2023-01-03T09:36:52.928Z,88.43
2023-01-03T09:39:25.929Z,86.91
2023-01-03T09:42:00.089Z,86.88
2023-01-03T09:44:33.645Z,88.13
2023-01-03T09:47:10.676Z,86.79
2023-01-03T09:50:04.563Z,86.79
2023-01-03T09:52:42.470Z,87.40
2023-01-03T09:55:48.094Z,88.49
2023-01-03T09:58:21.231Z,87.29
2023-01-03T10:01:00.940Z,87.41
2023-01-03T10:03:53.161Z,87.47
2023-01-03T10:10:25.177Z,87.21
2023-01-03T10:13:17.965Z,87.99
2023-01-03T10:16:11.515Z,87.20
2023-01-03T10:18:59.315Z,88.00
2023-01-03T10:21:51.118Z,87.37
2023-01-03T10:24:41.030Z,88.64
2023-01-03T10:27:21.112Z,88.33
2023-01-03T10:29:56.929Z,88.12
2023-01-03T10:32:39.306Z,88.12
2023-01-03T10:35:18.827Z,88.61
2023-01-03T10:37:54.863Z,88.72
2023-01-03T10:40:34.640Z,88.95
2023-01-03T10:43:27.931Z,89.29
2023-01-03T10:46:02.829Z,89.98
2023-01-03T10:49:08.307Z,89.01
2023-01-03T10:51:42.979Z,89.38
2023-01-03T10:54:19.711Z,88.57
2023-01-03T10:56:53.142Z,89.21
2023-01-03T10:59:27.743Z,88.17
2023-01-03T11:02:15.191Z,88.31
2023-01-03T11:04:48.281Z,91.51
2023-01-03T11:07:24.395Z,87.74
2023-01-03T11:09:58.374Z,86.84
2023-01-03T11:12:37.887Z,86.33
2023-01-03T11:15:14.979Z,85.79
2023-01-03T11:17:57.646Z,86.09
2023-01-03T11:20:34.172Z,84.74
2023-01-03T11:23:33.384Z,84.15
2023-01-03T11:26:18.151Z,85.02
2023-01-03T11:28:57.507Z,82.43
2023-01-03T11:31:49.504Z,82.52
2023-01-03T11:34:54.928Z,81.73
2023-01-03T11:37:36.884Z,81.61
2023-01-03T11:40:16.040Z,81.11
2023-01-03T11:42:58.068Z,79.30
2023-01-03T11:45:40.611Z,79.51
2023-01-03T11:48:25.412Z,76.58
2023-01-03T11:50:58.576Z,75.09
2023-01-03T11:53:31.884Z,75.49
2023-01-03T11:56:23.764Z,79.00
2023-01-03T11:58:59.826Z,74.04
2023-01-03T12:01:41.919Z,73.50
2023-01-03T12:04:30.258Z,72.79
2023-01-03T12:07:49.587Z,72.16
2023-01-03T12:10:24.718Z,70.16
2023-01-03T12:13:10.673Z,68.63
2023-01-03T12:15:55.990Z,69.44
2023-01-03T12:18:29.652Z,65.76
2023-01-03T12:21:10.541Z,66.04
2023-01-03T12:24:04.606Z,67.49
2023-01-03T12:26:39.864Z,71.79
2023-01-03T12:29:20.129Z,71.84
2023-01-03T12:32:06.685Z,73.94
2023-01-03T12:34:50.586Z,75.16
2023-01-03T12:37:24.808Z,77.15
2023-01-03T12:40:21.450Z,76.52
2023-01-03T12:43:01.123Z,77.44
2023-01-03T12:45:41.568Z,76.45
2023-01-03T12:48:32.057Z,77.84
2023-01-03T12:51:06.854Z,77.79
2023-01-03T12:53:47.009Z,77.04
2023-01-03T12:56:29.828Z,78.15
2023-01-03T12:59:06.021Z,77.24
2023-01-03T13:01:48.375Z,76.77
2023-01-03T13:04:30.287Z,76.37
2023-01-03T13:07:12.420Z,78.31
2023-01-03T13:09:51.520Z,75.04
2023-01-03T13:12:33.319Z,74.93
2023-01-03T13:15:12.599Z,77.54
2023-01-03T13:17:54.969Z,74.47
2023-01-03T13:20:33.728Z,73.99
2023-01-03T13:23:29.959Z,74.90
2023-01-03T13:26:06.110Z,76.02
2023-01-03T13:28:39.790Z,76.68
2023-01-03T13:31:22.516Z,76.98
2023-01-03T13:34:21.436Z,77.07
2023-01-03T13:37:06.856Z,78.07
2023-01-03T13:39:40.066Z,77.74
2023-01-03T13:42:35.895Z,77.70
2023-01-03T13:45:22.763Z,79.97
2023-01-03T13:47:56.592Z,78.64
2023-01-03T13:50:36.107Z,78.57
2023-01-03T13:53:11.853Z,78.95
2023-01-03T13:55:54.270Z,78.99
2023-01-03T13:58:37.921Z,79.26
2023-01-03T14:01:23.257Z,79.25
2023-01-03T14:03:56.524Z,79.42
2023-01-03T14:06:46.528Z,78.13
2023-01-03T14:09:38.573Z,78.72
2023-01-03T14:12:37.846Z,78.73
2023-01-03T14:15:21.445Z,78.74
2023-01-03T14:18:23.870Z,79.57
2023-01-03T14:21:10.233Z,79.98
2023-01-03T14:24:02.235Z,80.64
2023-01-03T14:26:36.072Z,83.52
2023-01-03T14:29:12.898Z,80.98
2023-01-03T14:31:47.418Z,81.99
2023-01-03T14:34:35.209Z,82.34
2023-01-03T14:37:25.704Z,84.75
2023-01-03T14:40:05.896Z,82.88
2023-01-03T14:42:44.922Z,82.28
2023-01-03T14:45:19.340Z,84.47
2023-01-03T14:47:53.690Z,84.32
2023-01-03T14:50:32.563Z,84.49
2023-01-03T14:53:11.409Z,85.11
2023-01-03T14:55:52.359Z,84.46
2023-01-03T14:58:35.793Z,85.78
2023-01-03T15:01:11.385Z,85.59
2023-01-03T15:03:46.105Z,86.18
2023-01-03T15:06:20.977Z,86.83
2023-01-03T15:08:56.095Z,87.17
2023-01-03T15:11:34.829Z,87.08
2023-01-03T15:14:17.662Z,87.23
2023-01-03T15:17:01.260Z,89.72
2023-01-03T15:19:35.048Z,86.51
2023-01-03T15:22:14.182Z,86.40
2023-01-03T15:24:49.170Z,86.82
2023-01-03T15:27:51.696Z,88.35
2023-01-03T15:30:26.646Z,87.79
2023-01-03T15:33:04.016Z,87.68
2023-01-03T15:35:41.677Z,88.65
2023-01-03T15:38:26.638Z,89.12
2023-01-03T15:41:00.571Z,88.96
2023-01-03T15:43:37.361Z,88.85
2023-01-03T15:46:18.274Z,89.22
2023-01-03T15:48:55.376Z,89.69
2023-01-03T15:51:28.754Z,89.16
2023-01-03T15:54:01.941Z,89.61
2023-01-03T15:56:40.276Z,90.67
2023-01-03T15:59:19.886Z,90.63
2023-01-03T16:01:53.422Z,90.89
2023-01-03T16:04:30.079Z,91.18
2023-01-03T16:07:03.302Z,91.37
2023-01-03T16:09:39.379Z,91.70
2023-01-03T16:12:24.477Z,92.63
2023-01-03T16:14:57.782Z,92.75
2023-01-03T16:17:31.162Z,93.78
2023-01-03T16:20:04.528Z,93.75
2023-01-03T16:22:41.310Z,93.71
2023-01-03T16:25:18.939Z,94.13
2023-01-03T16:27:51.907Z,93.71
2023-01-03T16:30:25.253Z,93.52
2023-01-03T16:32:58.379Z,93.44
2023-01-03T16:35:31.600Z,93.57
2023-01-03T16:38:08.389Z,94.02
2023-01-03T16:40:43.636Z,93.92
2023-01-03T16:43:17.183Z,94.41
2023-01-03T16:45:50.976Z,94.67
2023-01-03T16:48:25.032Z,94.29
2023-01-03T16:51:00.915Z,95.05
2023-01-03T16:53:37.853Z,93.60
2023-01-03T16:56:11.503Z,94.80
2023-01-03T16:58:44.824Z,94.29
2023-01-03T17:01:18.528Z,94.55
2023-01-03T17:03:54.717Z,94.65
2023-01-03T17:06:37.817Z,95.25
2023-01-03T17:09:16.056Z,94.79
2023-01-03T17:11:49.565Z,94.22
2023-01-03T17:14:23.351Z,94.85
2023-01-03T17:16:58.902Z,94.95
2023-01-03T17:22:27.456Z,95.08
2023-01-03T17:25:00.815Z,95.33
2023-01-03T17:27:36.424Z,95.50
2023-01-03T17:30:16.648Z,95.03
2023-01-03T17:32:49.900Z,95.45
2023-01-03T17:35:23.081Z,95.89
2023-01-03T17:38:24.543Z,96.34
2023-01-03T17:40:54.160Z,96.86
2023-01-03T17:43:27.739Z,97.22
2023-01-03T17:46:02.632Z,98.20
2023-01-03T17:48:37.604Z,97.89
2023-01-03T17:51:10.956Z,97.80
2023-01-03T17:53:44.607Z,97.48
2023-01-03T17:56:20.629Z,97.77
2023-01-03T17:58:56.280Z,98.19
2023-01-03T18:01:29.963Z,98.47
2023-01-03T18:04:04.267Z,98.90
2023-01-03T18:06:38.723Z,98.10
2023-01-03T18:09:15.847Z,98.97
2023-01-03T18:11:49.234Z,98.25
2023-01-03T18:14:22.333Z,98.51
2023-01-03T18:16:55.604Z,98.31
2023-01-03T18:19:32.143Z,98.18
2023-01-03T18:22:05.799Z,98.51
2023-01-03T18:24:42.789Z,98.27
2023-01-03T18:27:16.294Z,98.56
2023-01-03T18:29:50.649Z,98.38
2023-01-03T18:32:32.096Z,100.00
2023-01-03T18:35:06.161Z,91.93
2023-01-03T18:37:39.459Z,86.87
2023-01-03T18:40:16.988Z,80.82
2023-01-03T18:42:49.930Z,84.71
2023-01-03T18:45:23.164Z,89.91
2023-01-03T18:47:56.759Z,91.78
2023-01-03T18:50:30.095Z,94.40
2023-01-03T18:53:04.326Z,96.35
2023-01-03T18:55:40.939Z,97.31
2023-01-03T18:58:20.807Z,98.28
2023-01-03T19:00:54.385Z,98.59
2023-01-03T19:03:29.084Z,98.28
2023-01-03T19:06:03.019Z,98.75
2023-01-03T19:08:39.624Z,99.20
2023-01-03T19:11:16.709Z,99.44
2023-01-03T19:13:51.880Z,99.47
2023-01-03T19:16:28.839Z,99.40
2023-01-03T19:19:02.423Z,99.50
2023-01-03T19:21:40.724Z,99.62
2023-01-03T19:24:25.414Z,100.00
2023-01-03T19:27:02.640Z,99.62
2023-01-03T19:29:37.869Z,99.75
2023-01-03T19:32:14.436Z,100.00
2023-01-03T19:34:52.920Z,99.83
2023-01-03T19:37:30.708Z,100.00
2023-01-03T19:40:05.336Z,99.66
2023-01-03T19:42:54.706Z,100.00
2023-01-03T19:49:14.504Z,100.00
2023-01-03T19:51:48.553Z,100.00
2023-01-03T19:54:21.793Z,100.00
2023-01-03T19:56:58.445Z,100.00
2023-01-03T19:59:32.749Z,100.00
2023-01-03T20:02:26.449Z,100.00
2023-01-03T20:07:50.765Z,100.00
2023-01-03T20:10:26.303Z,100.00
2023-01-03T20:13:02.838Z,100.00
2023-01-03T20:15:49.026Z,100.00
2023-01-03T20:18:35.665Z,100.00
2023-01-03T20:21:27.951Z,100.00
2023-01-03T20:24:22.176Z,100.00
2023-01-03T20:27:12.433Z,100.00
2023-01-03T20:29:57.579Z,100.00
2023-01-03T20:32:45.832Z,100.00
2023-01-03T20:38:36.937Z,100.00
2023-01-03T20:41:30.421Z,100.00
2023-01-03T20:44:23.091Z,100.00
2023-01-03T20:47:10.509Z,100.00
2023-01-03T20:49:56.055Z,100.00
2023-01-03T20:52:41.061Z,100.00
2023-01-03T20:55:26.597Z,100.00
2023-01-03T20:58:16.198Z,100.00
2023-01-03T21:01:04.868Z,100.00
2023-01-03T21:03:52.388Z,100.00
2023-01-03T21:06:38.698Z,100.00
2023-01-03T21:09:28.163Z,100.00
2023-01-03T21:12:13.232Z,100.00
2023-01-03T21:14:58.871Z,100.00
2023-01-03T21:17:50.613Z,100.00
2023-01-03T21:20:36.506Z,100.00
2023-01-03T21:23:23.040Z,100.00
2023-01-03T21:26:08.406Z,100.00
2023-01-03T21:28:53.670Z,100.00
2023-01-03T21:31:39.733Z,100.00
2023-01-03T21:34:24.977Z,100.00
2023-01-03T21:37:10.093Z,100.00
2023-01-03T21:39:59.205Z,100.00
2023-01-03T21:42:57.108Z,100.00
2023-01-03T21:45:50.718Z,100.00
2023-01-03T21:48:36.427Z,100.00
2023-01-03T21:51:33.455Z,100.00
2023-01-03T21:54:23.365Z,100.00
2023-01-03T21:57:08.546Z,100.00
2023-01-03T21:59:54.458Z,100.00
2023-01-03T22:02:39.790Z,100.00
2023-01-03T22:05:25.435Z,100.00
2023-01-03T22:08:17.452Z,100.00
2023-01-03T22:11:12.027Z,100.00
2023-01-03T22:14:04.040Z,100.00
2023-01-03T22:16:56.010Z,100.00
2023-01-03T22:19:50.607Z,100.00
2023-01-03T22:22:43.570Z,100.00
2023-01-03T22:25:35.349Z,100.00
2023-01-03T22:28:28.078Z,100.00
2023-01-03T22:31:20.699Z,100.00
2023-01-03T22:34:13.686Z,100.00
2023-01-03T22:37:06.800Z,100.00
2023-01-03T22:39:58.926Z,100.00
2023-01-03T22:42:50.775Z,100.00
2023-01-03T22:45:42.945Z,100.00
2023-01-03T22:48:39.139Z,100.00
2023-01-03T22:51:31.041Z,100.00
2023-01-03T22:54:22.876Z,100.00
2023-01-03T22:57:14.640Z,100.00
2023-01-03T23:00:07.108Z,100.00
2023-01-03T23:03:01.716Z,100.00
2023-01-03T23:05:54.950Z,100.00
2023-01-03T23:08:48.487Z,100.00
2023-01-03T23:11:40.757Z,100.00
2023-01-03T23:14:33.078Z,100.00
2023-01-03T23:17:24.398Z,100.00
2023-01-03T23:20:16.934Z,100.00
2023-01-03T23:23:09.622Z,100.00
2023-01-03T23:26:02.372Z,100.00
2023-01-03T23:28:54.881Z,100.00
2023-01-03T23:31:46.718Z,100.00
2023-01-03T23:34:38.538Z,100.00
2023-01-03T23:37:30.440Z,100.00
2023-01-03T23:40:22.660Z,100.00
2023-01-03T23:43:14.641Z,100.00
2023-01-03T23:46:06.821Z,100.00
2023-01-03T23:48:58.722Z,100.00
2023-01-03T23:51:50.851Z,100.00
2023-01-03T23:54:42.429Z,100.00
2023-01-03T23:57:34.736Z,100.00
